Time;durP1;ratioP1;P1;durP2;ratioP2;P2;SDS_P1;SDS_P2;PMS_P1;PMS_P2;Temp;Humidity;BMP_temperature;BMP_pressure;BME280_temperature;BME280_humidity;BME280_pressure;Samples;Min_cycle;Max_cycle;Signal;HPM_P1;HPM_P2
2022/04/02 00:02:12;;;;;;;14.07;12.18;;;;;;;;;;5115784;28;20103;-59
2022/04/02 00:04:49;;;;;;;12.87;11.63;;;;;;;;;;5115813;28;20034;-59
2022/04/02 00:07:39;;;;;;;12.10;10.90;;;;;;;;;;5102854;28;20519;-59
2022/04/02 00:10:18;;;;;;;9.82;8.70;;;;;;;;;;5115422;28;20030;-58
2022/04/02 00:15:56;;;;;;;;;;;;;;;;;;;;;
2022/04/02 00:18:25;;;;;;;15.77;13.87;;;;;;;;;;5111000;28;20054;-59
2022/04/02 00:21:02;;;;;;;11.43;10.23;;;;;;;;;;5115609;28;20457;-59
2022/04/02 00:23:44;;;;;;;14.50;13.10;;;;;;;;;;5116162;28;20039;-59
2022/04/02 00:26:35;;;;;;;;;;;;;;;;;;;;;
2022/04/02 00:29:02;;;;;;;13.53;12.13;;;;;;;;;;5109811;28;20126;-59
2022/04/02 00:31:38;;;;;;;14.37;12.97;;;;;;;;;;5115458;28;20035;-59
2022/04/02 00:34:16;;;;;;;14.17;12.70;;;;;;;;;;5114084;28;20064;-59
2022/04/02 00:37:03;;;;;;;12.37;11.23;;;;;;;;;;5115166;28;20123;-58
2022/04/02 00:39:40;;;;;;;16.20;14.47;;;;;;;;;;5115111;28;20051;-59
2022/04/02 00:42:34;;;;;;;16.40;12.23;;;;;;;;;;5115414;28;20087;-59
2022/04/02 00:45:15;;;;;;;12.57;11.40;;;;;;;;;;5114496;28;20035;-58
2022/04/02 00:47:44;;;;;;;;;;;;;;;;;;5115290;28;20058;-59
2022/04/02 00:50:34;;;;;;;11.77;10.40;;;;;;;;;;5113120;28;20346;-59
2022/04/02 00:53:01;;;;;;;12.80;11.50;;;;;;;;;;5101989;28;20031;-59
2022/04/02 00:56:00;;;;;;;;;;;;;;;;;;;;;
2022/04/02 00:58:39;;;;;;;;;;;;;;;;;;;;;
2022/04/02 01:01:31;;;;;;;13.77;12.37;;;;;;;;;;5113984;28;20115;-59
2022/04/02 01:04:19;;;;;;;13.67;12.23;;;;;;;;;;5115184;28;20511;-59
2022/04/02 01:07:07;;;;;;;14.57;12.63;;;;;;;;;;5113893;28;20070;-59
2022/04/02 01:10:04;;;;;;;15.90;13.00;;;;;;;;;;5114105;28;20529;-59
2022/04/02 01:12:46;;;;;;;11.40;10.30;;;;;;;;;;5115083;28;20099;-59
2022/04/02 01:15:30;;;;;;;12.60;11.30;;;;;;;;;;5113714;28;20028;-59
2022/04/02 01:18:06;;;;;;;15.37;13.77;;;;;;;;;;5071883;28;20402;-59
2022/04/02 01:20:50;;;;;;;13.40;12.07;;;;;;;;;;5058837;28;20028;-59
2022/04/02 01:23:29;;;;;;;;;;;;;;;;;;;;;
2022/04/02 01:26:12;;;;;;;15.53;14.03;;;;;;;;;;5063152;28;20055;-59
2022/04/02 01:28:42;;;;;;;12.47;11.27;;;;;;;;;;5070655;28;20040;-58
2022/04/02 01:31:23;;;;;;;9.10;8.23;;;;;;;;;;5071305;28;20489;-59
2022/04/02 01:34:07;;;;;;;13.70;12.37;;;;;;;;;;5070734;28;20072;-59
2022/04/02 01:36:43;;;;;;;14.50;13.20;;;;;;;;;;5057875;28;20033;-59
2022/04/02 01:39:24;;;;;;;18.53;15.30;;;;;;;;;;5075000;28;20036;-59
2022/04/02 01:42:06;;;;;;;14.17;12.77;;;;;;;;;;5072518;28;20455;-59
2022/04/02 01:44:49;;;;;;;11.20;10.17;;;;;;;;;;5072597;28;20040;-59
2022/04/02 01:47:34;;;;;;;15.60;13.97;;;;;;;;;;5073929;28;20036;-59
2022/04/02 01:50:21;;;;;;;14.43;13.07;;;;;;;;;;5118018;28;20019;-59
2022/04/02 01:52:47;;;;;;;14.10;12.77;;;;;;;;;;5116913;28;20027;-59
2022/04/02 01:55:19;;;;;;;14.07;12.70;;;;;;;;;;5118071;28;20023;-59
2022/04/02 01:58:05;;;;;;;13.47;12.20;;;;;;;;;;5117242;28;20027;-59
2022/04/02 02:00:47;;;;;;;12.87;11.57;;;;;;;;;;5118099;28;20038;-59
2022/04/02 02:03:18;;;;;;;12.90;11.73;;;;;;;;;;5115846;28;20084;-59
2022/04/02 02:06:13;;;;;;;11.82;10.82;;;;;;;;;;5117500;28;20057;-59
2022/04/02 02:08:59;;;;;;;20.87;13.23;;;;;;;;;;5099619;28;20123;-59
2022/04/02 02:14:46;;;;;;;14.37;12.47;;;;;;;;;;5116374;28;20027;-59
2022/04/02 02:20:48;;;;;;;;;;;;;;;;;;;;;
2022/04/02 02:26:13;;;;;;;10.53;9.43;;;;;;;;;;5116928;28;20051;-59
2022/04/02 02:28:55;;;;;;;;;;;;;;;;;;;;;
2022/04/02 02:31:36;;;;;;;14.87;10.83;;;;;;;;;;5116756;28;20026;-59
2022/04/02 02:37:05;;;;;;;15.77;9.87;;;;;;;;;;5116694;28;20388;-58
2022/04/02 02:39:39;;;;;;;11.93;10.83;;;;;;;;;;5116711;28;20058;-58
2022/04/02 02:42:11;;;;;;;11.33;9.33;;;;;;;;;;5115317;28;20115;-59
2022/04/02 02:44:56;;;;;;;12.97;11.67;;;;;;;;;;5115073;28;20114;-58
2022/04/02 02:47:39;;;;;;;10.67;9.50;;;;;;;;;;5116821;28;20028;-59
2022/04/02 02:50:09;;;;;;;10.17;7.57;;;;;;;;;;5116385;28;20020;-59
2022/04/02 02:52:44;;;;;;;12.80;11.02;;;;;;;;;;5116178;28;20073;-59
2022/04/02 02:55:22;;;;;;;11.73;10.63;;;;;;;;;;5113970;28;20418;-58
2022/04/02 02:57:54;;;;;;;18.27;12.93;;;;;;;;;;5116278;28;20523;-59
2022/04/02 03:00:50;;;;;;;11.77;10.60;;;;;;;;;;5117083;28;20115;-59
2022/04/02 03:03:42;;;;;;;10.13;8.93;;;;;;;;;;5116729;28;20042;-59
2022/04/02 03:06:17;;;;;;;8.63;7.60;;;;;;;;;;5116233;28;20027;-59
2022/04/02 03:09:06;;;;;;;;;;;;;;;;;;;;;
2022/04/02 03:14:42;;;;;;;11.13;10.10;;;;;;;;;;5115873;28;20081;-58
2022/04/02 03:17:46;;;;;;;10.13;6.63;;;;;;;;;;5112898;28;20500;-59
2022/04/02 03:20:17;;;;;;;6.60;4.93;;;;;;;;;;5036235;28;20112;-58
2022/04/02 03:22:47;;;;;;;10.90;10.00;;;;;;;;;;5103235;28;20042;-58
2022/04/02 03:25:26;;;;;;;10.02;8.63;;;;;;;;;;5115892;28;20045;-59
2022/04/02 03:28:10;;;;;;;9.23;8.00;;;;;;;;;;5115718;28;20052;-58
2022/04/02 03:30:42;;;;;;;9.63;8.80;;;;;;;;;;5114260;28;20067;-58
2022/04/02 03:33:20;;;;;;;7.23;5.97;;;;;;;;;;5114796;28;20456;-59
2022/04/02 03:36:14;;;;;;;6.60;5.97;;;;;;;;;;5112377;28;20460;-59
2022/04/02 03:38:53;;;;;;;14.07;7.67;;;;;;;;;;5113438;28;20040;-59
2022/04/02 03:41:26;;;;;;;9.37;8.27;;;;;;;;;;5115157;28;20507;-59
2022/04/02 03:44:17;;;;;;;8.90;8.03;;;;;;;;;;5114021;28;20042;-59
2022/04/02 03:47:16;;;;;;;8.63;7.77;;;;;;;;;;5115638;28;20458;-58
2022/04/02 03:50:20;;;;;;;8.47;7.67;;;;;;;;;;5108182;28;20031;-59
2022/04/02 03:52:54;;;;;;;7.40;6.63;;;;;;;;;;5114901;28;20023;-59
2022/04/02 03:58:34;;;;;;;7.97;6.67;;;;;;;;;;5094838;28;20047;-59
2022/04/02 04:01:09;;;;;;;11.47;8.53;;;;;;;;;;5110029;28;20035;-59
2022/04/02 04:03:44;;;;;;;7.67;6.97;;;;;;;;;;5113365;28;20472;-59
2022/04/02 04:06:18;;;;;;;9.77;7.53;;;;;;;;;;5114763;28;20467;-59
2022/04/02 04:09:00;;;;;;;;;;;;;;;;;;;;;
2022/04/02 04:11:59;;;;;;;;;;;;;;;;;;;;;
2022/04/02 04:17:46;;;;;;;4.17;3.30;;;;;;;;;;5108816;28;20036;-59
2022/04/02 04:20:25;;;;;;;8.00;7.27;;;;;;;;;;5113729;28;20034;-59
2022/04/02 04:23:05;;;;;;;8.07;6.13;;;;;;;;;;5113305;28;20028;-59
2022/04/02 04:29:02;;;;;;;11.07;6.43;;;;;;;;;;5111863;28;20523;-59
2022/04/02 04:31:41;;;;;;;7.67;6.80;;;;;;;;;;5114910;28;20036;-59
2022/04/02 04:34:27;;;;;;;;;;;;;;;;;;;;;
2022/04/02 04:37:04;;;;;;;6.00;4.07;;;;;;;;;;5101305;28;20046;-59
2022/04/02 04:39:30;;;;;;;15.83;8.60;;;;;;;;;;5112447;28;20032;-59
2022/04/02 04:42:17;;;;;;;6.23;5.40;;;;;;;;;;5114555;28;20024;-59
2022/04/02 04:44:43;;;;;;;4.33;3.87;;;;;;;;;;5114294;28;20027;-59
2022/04/02 04:47:30;;;;;;;7.73;6.53;;;;;;;;;;5113842;28;20039;-59
2022/04/02 04:50:15;;;;;;;;;;;;;;;;;;;;;
2022/04/02 04:53:04;;;;;;;5.70;5.13;;;;;;;;;;5094390;28;20036;-59
2022/04/02 04:58:31;;;;;;;7.23;6.53;;;;;;;;;;5114128;28;20054;-59
2022/04/02 05:01:24;;;;;;;7.40;6.63;;;;;;;;;;5113916;28;20032;-59
2022/04/02 05:04:16;;;;;;;11.23;6.00;;;;;;;;;;5114673;28;20039;-59
2022/04/02 05:06:44;;;;;;;7.93;6.80;;;;;;;;;;5114488;28;20028;-59
2022/04/02 05:09:23;;;;;;;9.73;8.37;;;;;;;;;;5096715;28;20059;-59
2022/04/02 05:12:05;;;;;;;;;;;;;;;;;;;;;
2022/04/02 05:14:37;;;;;;;7.33;6.60;;;;;;;;;;5099510;28;20114;-59
2022/04/02 05:17:18;;;;;;;6.43;5.83;;;;;;;;;;5100491;28;20035;-59
2022/04/02 05:20:02;;;;;;;;;;;;;;;;;;5116811;28;20031;-59
2022/04/02 05:22:32;;;;;;;4.80;4.37;;;;;;;;;;5116512;28;19904;-59
2022/04/02 05:25:18;;;;;;;8.57;7.47;;;;;;;;;;5117600;28;20019;-59
2022/04/02 05:28:06;;;;;;;7.77;7.07;;;;;;;;;;5109826;28;20076;-59
2022/04/02 05:30:59;;;;;;;15.53;7.40;;;;;;;;;;5117674;28;20351;-59
2022/04/02 05:33:25;;;;;;;9.47;7.13;;;;;;;;;;5116535;28;20031;-59
2022/04/02 05:39:10;;;;;;;8.83;7.60;;;;;;;;;;5114424;28;20116;-59
2022/04/02 05:42:05;;;;;;;12.17;9.27;;;;;;;;;;5010960;28;20099;-59
2022/04/02 05:44:53;;;;;;;8.77;7.17;;;;;;;;;;5117721;28;20118;-59
2022/04/02 05:50:21;;;;;;;7.50;6.70;;;;;;;;;;5116775;28;20552;-59
2022/04/02 05:55:58;;;;;;;13.30;6.57;;;;;;;;;;5116302;28;20047;-59
2022/04/02 05:58:37;;;;;;;8.33;7.57;;;;;;;;;;5116888;28;20036;-59
2022/04/02 06:01:04;;;;;;;7.97;7.20;;;;;;;;;;5116553;28;20031;-59
2022/04/02 06:06:54;;;;;;;;;;;;;;;;;;;;;
2022/04/02 06:09:36;;;;;;;6.37;5.77;;;;;;;;;;5114792;28;20045;-59
2022/04/02 06:12:12;;;;;;;8.13;5.73;;;;;;;;;;5116489;28;20028;-59
2022/04/02 06:14:47;;;;;;;8.17;7.37;;;;;;;;;;5112692;28;20491;-59
2022/04/02 06:17:37;;;;;;;7.00;6.30;;;;;;;;;;5116675;28;20040;-59
2022/04/02 06:20:25;;;;;;;6.67;4.87;;;;;;;;;;5116816;28;20027;-59
2022/04/02 06:23:18;;;;;;;7.13;6.43;;;;;;;;;;5116819;28;20538;-59
2022/04/02 06:26:05;;;;;;;7.17;6.47;;;;;;;;;;5116728;28;20027;-59
2022/04/02 06:28:48;;;;;;;6.03;5.17;;;;;;;;;;5115730;28;20053;-59
2022/04/02 06:31:26;;;;;;;9.40;5.80;;;;;;;;;;5116934;28;20063;-59
2022/04/02 06:34:02;;;;;;;6.63;5.80;;;;;;;;;;5116871;28;20097;-59
2022/04/02 06:40:10;;;;;;;8.43;7.53;;;;;;;;;;5082493;28;20027;-58
2022/04/02 06:42:56;;;;;;;5.32;4.82;;;;;;;;;;5116848;28;20022;-59
2022/04/02 06:45:46;;;;;;;5.00;4.60;;;;;;;;;;5117488;28;20027;-59
2022/04/02 06:48:20;;;;;;;7.47;6.73;;;;;;;;;;5105069;28;20127;-59
2022/04/02 06:54:09;;;;;;;7.37;5.73;;;;;;;;;;5087357;28;20473;-59
2022/04/02 06:56:50;;;;;;;;;;;;;;;;;;;;;
2022/04/02 06:59:23;;;;;;;7.17;6.50;;;;;;;;;;5081667;28;20034;-59
2022/04/02 07:02:12;;;;;;;6.53;5.93;;;;;;;;;;5093524;28;20537;-59
2022/04/02 07:05:14;;;;;;;8.07;6.23;;;;;;;;;;5091624;28;20032;-59
2022/04/02 07:07:40;;;;;;;6.00;5.43;;;;;;;;;;5076870;28;20051;-59
2022/04/02 07:10:16;;;;;;;5.13;4.63;;;;;;;;;;5093516;28;20020;-59
2022/04/02 07:12:52;;;;;;;6.33;5.73;;;;;;;;;;5093855;28;20028;-59
2022/04/02 07:15:46;;;;;;;7.37;5.50;;;;;;;;;;5077053;28;20482;-59
2022/04/02 07:18:32;;;;;;;5.73;5.20;;;;;;;;;;5093253;28;20059;-59
2022/04/02 07:21:24;;;;;;;5.87;5.37;;;;;;;;;;5081498;28;20119;-59
2022/04/02 07:23:56;;;;;;;5.03;4.53;;;;;;;;;;5115642;28;20034;-59
2022/04/02 07:26:48;;;;;;;6.43;5.83;;;;;;;;;;5114978;28;20051;-59
2022/04/02 07:29:15;;;;;;;7.77;3.40;;;;;;;;;;5076000;28;20466;-59
2022/04/02 07:32:20;;;;;;;8.10;5.93;;;;;;;;;;5074181;28;20511;-59
2022/04/02 07:34:58;;;;;;;2.60;2.13;;;;;;;;;;5074735;28;20095;-59
2022/04/02 07:37:27;;;;;;;6.07;5.47;;;;;;;;;;5075052;28;20358;-58
2022/04/02 07:40:11;;;;;;;6.70;5.93;;;;;;;;;;5074445;28;20050;-58
2022/04/02 07:43:08;;;;;;;5.73;5.13;;;;;;;;;;5074854;28;20029;-58
2022/04/02 07:46:01;;;;;;;6.17;5.50;;;;;;;;;;5075031;28;20354;-57
2022/04/02 07:48:49;;;;;;;5.50;5.00;;;;;;;;;;5072359;28;20033;-58
2022/04/02 07:51:44;;;;;;;6.80;6.20;;;;;;;;;;5075824;28;20031;-57
2022/04/02 07:54:41;;;;;;;;;;;;;;;;;;;;;
2022/04/02 07:57:15;;;;;;;7.30;6.60;;;;;;;;;;5072056;28;20049;-57
2022/04/02 08:00:03;;;;;;;7.43;6.83;;;;;;;;;;5074946;28;20077;-58
2022/04/02 08:02:46;;;;;;;7.53;6.80;;;;;;;;;;5074983;28;20036;-58
2022/04/02 08:05:36;;;;;;;7.27;6.53;;;;;;;;;;5074233;28;20346;-56
2022/04/02 08:08:15;;;;;;;9.55;8.63;;;;;;;;;;5074742;28;20059;-58
2022/04/02 08:10:52;;;;;;;4.93;4.23;;;;;;;;;;5074943;28;20029;-58
2022/04/02 08:13:33;;;;;;;7.13;6.43;;;;;;;;;;5072811;28;20021;-58
2022/04/02 08:16:18;;;;;;;7.53;6.93;;;;;;;;;;5073852;28;20024;-57
2022/04/02 08:19:05;;;;;;;9.17;7.40;;;;;;;;;;5074275;28;20058;-59
2022/04/02 08:21:42;;;;;;;5.23;4.77;;;;;;;;;;5072746;28;20032;-58
2022/04/02 08:24:31;;;;;;;7.17;6.47;;;;;;;;;;5075016;28;20560;-56
2022/04/02 08:27:29;;;;;;;6.37;5.30;;;;;;;;;;5082453;28;20152;-57
2022/04/02 08:30:09;;;;;;;5.57;5.07;;;;;;;;;;5094669;28;20046;-57
2022/04/02 08:32:48;;;;;;;5.87;5.37;;;;;;;;;;5095301;28;20509;-58
2022/04/02 08:35:39;;;;;;;7.30;6.03;;;;;;;;;;5112545;28;20042;-57
2022/04/02 08:38:43;;;;;;;6.63;5.90;;;;;;;;;;5102833;28;20036;-58
2022/04/02 08:41:25;;;;;;;6.33;5.73;;;;;;;;;;5112220;28;20388;-57
2022/04/02 08:44:20;;;;;;;;;;;;;;;;;;;;;
2022/04/02 08:46:54;;;;;;;6.40;5.80;;;;;;;;;;5110730;28;20027;-58
2022/04/02 08:49:24;;;;;;;5.50;4.70;;;;;;;;;;5104089;28;20085;-57
2022/04/02 08:58:37;;;;;;;6.93;6.33;;;;;;;;;;5090137;28;20042;-58
2022/04/02 09:01:10;;;;;;;7.90;5.90;;;;;;;;;;5116450;28;20477;-58
2022/04/02 09:07:02;;;;;;;6.70;6.10;;;;;;;;;;5117681;28;20031;-58
2022/04/02 09:10:05;;;;;;;6.93;6.00;;;;;;;;;;5118235;28;20019;-57
2022/04/02 09:12:41;;;;;;;5.47;4.97;;;;;;;;;;5117040;28;20546;-58
2022/04/02 09:15:50;;;;;;;7.67;6.83;;;;;;;;;;5115608;28;20135;-58
2022/04/02 09:18:31;;;;;;;6.93;5.97;;;;;;;;;;5033488;28;20046;-56
2022/04/02 09:21:20;;;;;;;5.90;5.10;;;;;;;;;;5018568;28;20626;-58
2022/04/02 09:24:18;;;;;;;8.30;7.50;;;;;;;;;;5015880;28;20037;-58
2022/04/02 09:27:03;;;;;;;14.30;8.13;;;;;;;;;;5084051;28;20400;-56
2022/04/02 09:29:46;;;;;;;11.67;7.93;;;;;;;;;;5118364;28;20051;-57
2022/04/02 09:32:36;;;;;;;9.30;8.30;;;;;;;;;;5116027;28;20028;-58
2022/04/02 09:35:23;;;;;;;8.07;7.07;;;;;;;;;;5117825;28;20027;-57
2022/04/02 09:38:21;;;;;;;7.77;5.90;;;;;;;;;;5094095;28;20082;-57
2022/04/02 09:40:56;;;;;;;8.67;7.73;;;;;;;;;;5074190;28;20428;-58
2022/04/02 09:43:31;;;;;;;9.10;7.17;;;;;;;;;;5078663;28;20423;-58
2022/04/02 09:46:31;;;;;;;2.27;2.13;;;;;;;;;;5077727;28;20111;-56
2022/04/02 09:49:07;;;;;;;6.83;6.23;;;;;;;;;;5094585;28;20036;-58
2022/04/02 09:52:00;;;;;;;4.73;4.33;;;;;;;;;;5088944;28;20266;-57
2022/04/02 09:54:41;;;;;;;7.80;7.00;;;;;;;;;;5039574;28;20035;-57
2022/04/02 09:57:30;;;;;;;7.57;5.63;;;;;;;;;;5062502;28;20040;-58
2022/04/02 10:00:21;;;;;;;8.10;6.70;;;;;;;;;;5026027;28;20028;-58
2022/04/02 10:06:10;;;;;;;4.00;3.13;;;;;;;;;;5116950;28;20047;-58
2022/04/02 10:08:58;;;;;;;7.63;6.93;;;;;;;;;;5115675;28;20031;-57
2022/04/02 10:11:35;;;;;;;9.20;7.90;;;;;;;;;;5116735;28;20032;-58
2022/04/02 10:14:11;;;;;;;8.33;6.83;;;;;;;;;;5117078;28;20027;-57
2022/04/02 10:16:58;;;;;;;8.27;6.73;;;;;;;;;;5116796;28;20046;-57
2022/04/02 10:19:43;;;;;;;8.73;7.90;;;;;;;;;;5115334;28;20374;-57
2022/04/02 10:22:11;;;;;;;9.47;8.47;;;;;;;;;;5116633;28;20090;-58
2022/04/02 10:24:50;;;;;;;9.50;8.53;;;;;;;;;;5116861;28;20032;-58
2022/04/02 10:27:43;;;;;;;5.32;4.82;;;;;;;;;;5115391;28;20051;-58
2022/04/02 10:30:33;;;;;;;6.90;6.20;;;;;;;;;;5116853;28;20039;-57
2022/04/02 10:36:03;;;;;;;;;;;;;;;;;;;;;
2022/04/02 10:38:45;;;;;;;9.43;6.57;;;;;;;;;;5114111;28;20050;-58
2022/04/02 10:41:18;;;;;;;8.10;7.30;;;;;;;;;;5116548;28;20484;-58
2022/04/02 10:44:06;;;;;;;8.37;7.00;;;;;;;;;;5112536;28;20028;-58
2022/04/02 10:46:41;;;;;;;10.50;7.57;;;;;;;;;;5115548;28;20035;-56
2022/04/02 10:49:23;;;;;;;11.67;9.77;;;;;;;;;;5113876;28;20027;-54
2022/04/02 10:52:08;;;;;;;8.53;7.70;;;;;;;;;;5115492;28;20059;-57
2022/04/02 10:55:25;;;;;;;4.17;2.60;;;;;;;;;;5108625;27;20431;-57
2022/04/02 10:58:19;;;;;;;6.73;6.03;;;;;;;;;;5108904;28;20039;-57
2022/04/02 11:01:06;;;;;;;7.77;6.97;;;;;;;;;;5114439;28;20374;-57
2022/04/02 11:09:55;;;;;;;4.57;3.70;;;;;;;;;;5032811;28;20071;-60
2022/04/02 11:12:48;;;;;;;;;;;;;;;;;;;;;
2022/04/02 11:15:21;;;;;;;7.97;6.37;;;;;;;;;;5098908;28;20036;-60
2022/04/02 11:18:01;;;;;;;7.97;6.57;;;;;;;;;;5114584;27;20038;-59
2022/04/02 11:21:11;;;;;;;5.13;4.37;;;;;;;;;;5116423;28;20020;-60
2022/04/02 11:23:47;;;;;;;7.40;6.63;;;;;;;;;;5114597;28;20024;-60
2022/04/02 11:26:45;;;;;;;7.63;6.73;;;;;;;;;;5112346;28;20036;-57
2022/04/02 11:29:55;;;;;;;13.13;6.00;;;;;;;;;;5113783;28;20131;-57
2022/04/02 11:32:40;;;;;;;10.40;3.37;;;;;;;;;;5114220;28;20039;-60
2022/04/02 11:35:35;;;;;;;9.20;8.13;;;;;;;;;;5114626;28;20091;-60
2022/04/02 11:38:25;;;;;;;7.13;6.17;;;;;;;;;;5114459;28;20028;-60
2022/04/02 11:41:33;;;;;;;6.43;5.85;;;;;;;;;;5114372;28;20496;-60
2022/04/02 11:44:34;;;;;;;2.00;1.87;;;;;;;;;;5032256;28;20113;-60
2022/04/02 11:47:10;;;;;;;2.37;2.20;;;;;;;;;;5032454;28;20080;-59
2022/04/02 11:49:46;;;;;;;6.53;5.93;;;;;;;;;;5097993;28;20118;-60
2022/04/02 11:52:39;;;;;;;8.60;7.73;;;;;;;;;;5114576;28;20042;-60
2022/04/02 11:55:18;;;;;;;7.37;6.37;;;;;;;;;;5116299;28;20360;-60
2022/04/02 11:58:02;;;;;;;8.60;7.80;;;;;;;;;;5115561;28;20030;-60
2022/04/02 12:00:57;;;;;;;8.53;7.80;;;;;;;;;;5116161;28;20051;-60
2022/04/02 12:03:38;;;;;;;10.87;9.60;;;;;;;;;;5115424;28;20031;-60
2022/04/02 12:09:22;;;;;;;8.37;7.63;;;;;;;;;;5115375;28;20034;-60
2022/04/02 12:15:23;;;;;;;6.77;6.17;;;;;;;;;;5115148;28;20119;-60
2022/04/02 12:18:00;;;;;;;8.60;7.03;;;;;;;;;;5104212;28;20047;-60
2022/04/02 12:20:54;;;;;;;10.77;6.63;;;;;;;;;;5115153;28;20032;-60
2022/04/02 12:23:44;;;;;;;10.67;9.30;;;;;;;;;;5114983;28;20097;-60
2022/04/02 12:26:33;;;;;;;7.53;6.83;;;;;;;;;;5115132;28;20032;-60
2022/04/02 12:29:22;;;;;;;5.97;5.47;;;;;;;;;;5101131;28;20044;-60
2022/04/02 12:32:24;;;;;;;10.07;8.07;;;;;;;;;;5104915;28;20052;-60
2022/04/02 12:35:00;;;;;;;9.20;8.30;;;;;;;;;;5113338;28;20092;-60
2022/04/02 12:37:28;;;;;;;9.67;7.80;;;;;;;;;;5113896;28;20036;-60
2022/04/02 12:40:24;;;;;;;6.20;5.37;;;;;;;;;;5114849;28;20059;-60
2022/04/02 12:43:10;;;;;;;9.20;7.23;;;;;;;;;;5114925;28;20111;-60
2022/04/02 12:45:51;;;;;;;8.97;8.07;;;;;;;;;;5115308;28;20408;-60
2022/04/02 12:51:47;;;;;;;7.27;6.17;;;;;;;;;;5112491;28;20031;-60
2022/04/02 12:54:34;;;;;;;8.07;7.23;;;;;;;;;;5115256;28;20023;-60
2022/04/02 12:57:24;;;;;;;11.73;9.90;;;;;;;;;;5113915;28;20445;-60
2022/04/02 12:59:56;;;;;;;9.87;8.87;;;;;;;;;;5114432;28;20028;-60
2022/04/02 13:02:26;;;;;;;9.53;8.60;;;;;;;;;;5116043;28;20457;-60
2022/04/02 13:05:16;;;;;;;7.83;7.13;;;;;;;;;;5113595;28;20433;-60
2022/04/02 13:08:19;;;;;;;9.30;7.93;;;;;;;;;;5114766;28;20065;-60
2022/04/02 13:10:53;;;;;;;9.37;8.07;;;;;;;;;;5114759;28;20521;-60
2022/04/02 13:13:56;;;;;;;7.83;6.67;;;;;;;;;;5115875;28;20024;-59
2022/04/02 13:23:04;;;;;;;7.50;6.78;;;;;;;;;;5115161;28;20054;-60
2022/04/02 13:25:51;;;;;;;9.57;8.57;;;;;;;;;;5080349;28;20063;-60
2022/04/02 13:28:42;;;;;;;9.03;8.17;;;;;;;;;;5116157;28;20039;-60
2022/04/02 13:31:23;;;;;;;7.17;6.47;;;;;;;;;;5117343;28;20054;-60
2022/04/02 13:34:17;;;;;;;11.97;10.80;;;;;;;;;;5117266;28;20058;-60
2022/04/02 13:37:06;;;;;;;10.50;8.20;;;;;;;;;;5118123;28;20038;-60
2022/04/02 13:39:55;;;;;;;7.70;6.97;;;;;;;;;;5118958;28;20453;-60
2022/04/02 13:42:35;;;;;;;8.85;7.95;;;;;;;;;;5119291;28;20023;-60
2022/04/02 13:45:33;;;;;;;9.77;7.90;;;;;;;;;;5118944;28;20030;-60
2022/04/02 13:48:31;;;;;;;9.07;7.50;;;;;;;;;;5117418;28;20032;-60
2022/04/02 13:51:23;;;;;;;8.83;7.93;;;;;;;;;;5118659;28;20058;-60
2022/04/02 13:54:31;;;;;;;9.83;8.10;;;;;;;;;;5115263;28;20036;-60
2022/04/02 14:00:53;;;;;;;6.90;6.30;;;;;;;;;;5113619;28;20095;-60
2022/04/02 14:03:31;;;;;;;12.27;7.70;;;;;;;;;;5110434;28;20044;-60
2022/04/02 14:06:13;;;;;;;7.23;6.60;;;;;;;;;;5116669;28;20059;-60
2022/04/02 14:09:13;;;;;;;10.20;9.23;;;;;;;;;;5098865;28;20035;-60
2022/04/02 14:11:58;;;;;;;9.73;7.37;;;;;;;;;;5116303;28;20049;-60
2022/04/02 14:14:34;;;;;;;7.07;6.40;;;;;;;;;;5114983;28;20472;-60
2022/04/02 14:17:53;;;;;;;6.17;5.57;;;;;;;;;;5114673;28;20051;-60
2022/04/02 14:20:20;;;;;;;10.00;9.03;;;;;;;;;;5113837;28;20031;-60
2022/04/02 14:23:18;;;;;;;;;;;;;;;;;;;;;
2022/04/02 14:26:05;;;;;;;10.00;8.57;;;;;;;;;;5113495;28;20028;-60
2022/04/02 14:32:24;;;;;;;;;;;;;;;;;;;;;
2022/04/02 14:35:25;;;;;;;9.93;8.97;;;;;;;;;;5116065;28;20392;-60
2022/04/02 14:38:10;;;;;;;9.37;7.50;;;;;;;;;;5029595;28;20546;-61
2022/04/02 14:44:20;;;;;;;8.73;7.60;;;;;;;;;;5116158;28;20036;-60
2022/04/02 14:47:13;;;;;;;10.68;9.68;;;;;;;;;;5113790;28;20042;-60
2022/04/02 14:50:04;;;;;;;8.63;7.73;;;;;;;;;;5116286;27;20127;-60
2022/04/02 14:53:04;;;;;;;8.57;7.72;;;;;;;;;;5105686;28;20111;-60
2022/04/02 14:56:00;;;;;;;8.87;7.63;;;;;;;;;;5116374;28;20036;-60
2022/04/02 14:58:34;;;;;;;8.03;7.33;;;;;;;;;;5115654;28;20043;-60
2022/04/02 15:01:08;;;;;;;7.63;5.87;;;;;;;;;;5115698;28;20114;-60
2022/04/02 15:04:16;;;;;;;11.03;9.57;;;;;;;;;;5115942;28;20069;-60
2022/04/02 15:07:11;;;;;;;7.73;7.03;;;;;;;;;;5115824;28;20469;-60
2022/04/02 15:10:05;;;;;;;13.27;7.63;;;;;;;;;;5114662;28;20395;-60
2022/04/02 15:13:12;;;;;;;9.53;8.53;;;;;;;;;;5116547;28;20121;-58
2022/04/02 15:15:51;;;;;;;11.53;10.43;;;;;;;;;;5115571;28;20023;-58
2022/04/02 15:18:45;;;;;;;;;;;;;;;;;;;;;
2022/04/02 15:21:15;;;;;;;11.80;10.33;;;;;;;;;;5111924;28;20075;-60
2022/04/02 15:24:01;;;;;;;12.55;10.73;;;;;;;;;;5116524;28;20061;-60
2022/04/02 15:26:46;;;;;;;10.40;8.93;;;;;;;;;;5117306;28;20024;-60
2022/04/02 15:29:23;;;;;;;10.17;9.17;;;;;;;;;;5115430;28;20028;-58
2022/04/02 15:32:24;;;;;;;;;;;;;;;;;;;;;
2022/04/02 15:34:58;;;;;;;13.13;10.00;;;;;;;;;;5116794;28;20087;-59
2022/04/02 15:38:12;;;;;;;;;;;;;;;;;;;;;
2022/04/02 15:40:48;;;;;;;13.50;12.10;;;;;;;;;;5045257;28;20357;-58
2022/04/02 15:43:33;;;;;;;14.67;12.37;;;;;;;;;;5115462;28;20023;-59
2022/04/02 15:46:21;;;;;;;10.97;9.97;;;;;;;;;;5113931;28;20028;-59
2022/04/02 15:51:53;;;;;;;13.53;11.13;;;;;;;;;;5053114;28;20116;-59
2022/04/02 15:54:46;;;;;;;11.33;10.23;;;;;;;;;;5050206;28;20036;-59
2022/04/02 15:57:37;;;;;;;10.47;8.07;;;;;;;;;;5052859;28;20041;-60
2022/04/02 16:00:14;;;;;;;9.07;8.27;;;;;;;;;;5114041;28;20038;-59
2022/04/02 16:02:50;;;;;;;11.73;10.33;;;;;;;;;;5115031;28;20049;-58
2022/04/02 16:05:56;;;;;;;11.50;10.37;;;;;;;;;;5114452;28;20468;-57
2022/04/02 16:08:52;;;;;;;11.43;10.33;;;;;;;;;;5114954;28;20035;-58
2022/04/02 16:11:45;;;;;;;11.50;10.40;;;;;;;;;;5115551;28;20030;-58
2022/04/02 16:14:39;;;;;;;13.47;10.90;;;;;;;;;;5112853;28;20550;-59
2022/04/02 16:17:20;;;;;;;11.23;10.13;;;;;;;;;;5114895;28;20040;-57
2022/04/02 16:20:14;;;;;;;7.50;6.70;;;;;;;;;;5115352;28;20050;-59
2022/04/02 16:22:50;;;;;;;11.83;10.73;;;;;;;;;;5113383;28;20165;-58
2022/04/02 16:25:20;;;;;;;13.37;10.90;;;;;;;;;;5114553;28;20028;-58
2022/04/02 16:27:56;;;;;;;9.33;8.07;;;;;;;;;;5114133;28;20390;-59
2022/04/02 16:30:47;;;;;;;14.93;13.37;;;;;;;;;;5113813;28;21004;-60
2022/04/02 16:39:21;;;;;;;;;;;;;;;;;;;;;
2022/04/02 16:45:02;;;;;;;12.13;10.93;;;;;;;;;;5101834;28;20027;-58
2022/04/02 16:48:45;;;;;;;11.33;10.13;;;;;;;;;;5113774;28;20031;-59
2022/04/02 16:51:02;;;;;;;11.93;10.77;;;;;;;;;;5100082;28;20028;-59
2022/04/02 16:53:30;;;;;;;10.83;9.73;;;;;;;;;;5114036;28;20032;-58
2022/04/02 16:59:10;;;;;;;12.30;11.00;;;;;;;;;;5109561;28;20130;-59
2022/04/02 17:01:53;;;;;;;10.70;9.60;;;;;;;;;;5114290;28;20027;-58
2022/04/02 17:04:41;;;;;;;13.03;11.63;;;;;;;;;;5114356;28;20042;-58
2022/04/02 17:07:09;;;;;;;11.33;10.03;;;;;;;;;;5116667;28;20051;-59
2022/04/02 17:09:55;;;;;;;11.40;10.10;;;;;;;;;;5116300;28;20489;-58
2022/04/02 17:12:36;;;;;;;9.77;8.77;;;;;;;;;;5118200;28;20365;-57
2022/04/02 17:15:12;;;;;;;9.70;8.68;;;;;;;;;;5118377;28;20028;-59
2022/04/02 17:17:51;;;;;;;14.53;8.73;;;;;;;;;;5117724;28;20477;-58
2022/04/02 17:23:41;;;;;;;20.77;18.00;;;;;;;;;;5112237;28;20035;-58
2022/04/02 17:26:35;;;;;;;14.27;11.23;;;;;;;;;;5117595;28;20089;-57
2022/04/02 17:29:15;;;;;;;11.00;10.03;;;;;;;;;;5117849;28;20026;-58
2022/04/02 17:31:53;;;;;;;12.37;11.23;;;;;;;;;;5114232;28;20058;-59
2022/04/02 17:34:21;;;;;;;17.47;12.17;;;;;;;;;;5116989;28;20090;-58
2022/04/02 17:37:29;;;;;;;12.37;11.07;;;;;;;;;;5116975;28;20618;-59
2022/04/02 17:40:36;;;;;;;13.43;12.10;;;;;;;;;;5116506;28;20032;-59
2022/04/02 17:43:18;;;;;;;10.85;9.88;;;;;;;;;;5017164;28;20021;-58
2022/04/02 17:46:03;;;;;;;;;;;;;;;;;;;;;
2022/04/02 17:48:53;;;;;;;10.20;9.20;;;;;;;;;;5092515;28;20400;-59
2022/04/02 17:54:37;;;;;;;16.83;15.07;;;;;;;;;;5113430;28;20030;-58
2022/04/02 17:57:09;;;;;;;12.87;10.17;;;;;;;;;;5116828;28;20072;-58
2022/04/02 18:00:08;;;;;;;13.73;10.73;;;;;;;;;;5117379;28;20046;-57
2022/04/02 18:03:31;;;;;;;11.93;10.83;;;;;;;;;;5045275;28;20043;-58
2022/04/02 18:06:17;;;;;;;9.93;8.93;;;;;;;;;;5117444;28;20161;-58
2022/04/02 18:08:47;;;;;;;9.63;7.87;;;;;;;;;;5103014;28;20067;-59
2022/04/02 18:11:31;;;;;;;12.43;11.23;;;;;;;;;;5116139;28;20024;-57
2022/04/02 18:14:12;;;;;;;9.33;8.53;;;;;;;;;;5116824;28;20076;-60
2022/04/02 18:17:13;;;;;;;;;;;;;;;;;;;;;
2022/04/02 18:20:02;;;;;;;9.57;8.68;;;;;;;;;;5114816;28;20111;-58
2022/04/02 18:22:43;;;;;;;;;;;;;;;;;;;;;
2022/04/02 18:25:13;;;;;;;11.27;10.23;;;;;;;;;;5117556;28;20532;-59
2022/04/02 18:28:00;;;;;;;12.07;10.88;;;;;;;;;;5116053;28;20032;-59
2022/04/02 18:30:35;;;;;;;11.67;10.47;;;;;;;;;;5117006;28;20466;-58
2022/04/02 18:33:11;;;;;;;11.03;9.93;;;;;;;;;;5112755;27;20043;-57
2022/04/02 18:36:08;;;;;;;12.23;10.53;;;;;;;;;;5116720;28;20051;-57
2022/04/02 18:38:39;;;;;;;11.23;10.23;;;;;;;;;;5115621;28;20040;-57
2022/04/02 18:41:29;;;;;;;11.63;10.53;;;;;;;;;;5114148;28;20040;-58
2022/04/02 18:44:01;;;;;;;10.70;9.27;;;;;;;;;;5117153;28;20457;-59